WEATHER DATA

TODAY
Time Temp. Dewp. Hum. Bar. 1h Prec. 24h Prec.
00:00 20.9 16.1 74 1013.6 0.0000 0.0000
00:10 20.9 16.1 74 1013.6 0.0000 0.0000
00:19 20.8 16 74 1013.5 0.0000 0.0000
00:30 20.8 16.2 75 1013.5 0.0000 0.0000
00:40 20.8 16.2 75 1013.4 0.0000 0.0000
00:51 20.8 16.2 75 1013.6 0.0000 0.0000
01:01 20.8 16.2 75 1013.4 0.0000 0.0000
01:10 20.8 16.2 75 1013.3 0.0000 0.0000
01:21 20.8 16.2 75 1013.5 0.0000 0.0000
01:31 20.8 16.4 76 1013.5 0.0000 0.0000
01:41 20.8 16.4 76 1013.5 0.0000 0.0000
01:51 20.8 16.2 75 1013.5 0.0000 0.0000
02:02 20.7 16.3 76 1013.6 0.0000 0.0000
02:11 20.7 16.3 76 1013.6 0.0000 0.0000
02:21 20.7 16.3 76 1013.6 0.0000 0.0000
02:31 20.7 16.3 76 1013.7 0.0000 0.0000
02:42 20.6 16.4 77 1013.7 0.0000 0.0000
02:52 20.6 16.4 77 1013.6 0.0000 0.0000
03:02 20.6 16.6 78 1013.5 0.0000 0.0000
03:12 20.5 16.3 77 1013.4 0.0000 0.0000
03:22 20.5 16.5 78 1013.4 0.0000 0.0000
03:32 20.5 16.5 78 1013.2 0.0000 0.0000
03:42 20.4 16.4 78 1013.3 0.0000 0.0000
03:53 20.4 16.4 78 1013.4 0.0000 0.0000
04:02 20.3 16.5 79 1013.3 0.0000 0.0000
04:12 20.3 16.5 79 1013.3 0.0000 0.0000
04:23 20.2 16.4 79 1013.2 0.0000 0.0000
04:33 20.2 16.4 79 1013.2 0.0000 0.0000
04:43 20.1 16.3 79 1013.1 0.0000 0.0000
04:53 20 16.2 79 1013.2 0.0000 0.0000
05:04 19.9 16.2 79 1013.1 0.0000 0.0000
05:13 19.8 16.1 79 1013 0.0000 0.0000
05:23 19.7 16 79 1013.2 0.0000 0.0000
05:33 19.6 16.1 80 1013.3 0.0000 0.0000
05:44 19.5 16 80 1013.4 0.0000 0.0000
05:54 19.4 15.9 80 1013.3 0.0000 0.0000
06:03 19.4 16.1 81 1013.4 0.0000 0.0000
06:13 19.3 16 81 1013.4 0.0000 0.0000
06:24 19.3 16 81 1013.4 0.0000 0.0000
06:34 19.3 16 81 1013.3 0.0000 0.0000
06:44 19.2 15.9 81 1013.3 0.0000 0.0000
06:55 19.2 16.1 82 1013.2 0.0000 0.0000
07:04 19.1 16 82 1013.4 0.0000 0.0000
07:14 19.1 16.1 83 1013.6 0.0000 0.0000
07:24 19.1 16.1 83 1013.6 0.0000 0.0000
07:35 19.1 16.1 83 1013.6 0.0000 0.0000
07:45 19 16 83 1013.7 0.0000 0.0000
07:55 19 16.2 84 1013.7 0.0000 0.0000
08:05 19 16.2 84 1013.9 0.0000 0.0000
08:15 19 16.4 85 1013.9 0.0000 0.0000
08:25 19 16.6 86 1014 0.0000 0.0000
08:35 18.9 16.5 86 1014.1 0.0000 0.0000
08:46 18.8 16.6 87 1014.1 0.0000 0.0000
08:58 18.7 16.7 88 1014.3 0.3030 0.3000
09:09 18.6 16.6 88 1014.4 0.7070 0.7000
09:19 18.6 16.6 88 1014.5 0.7070 0.7000
09:28 18.5 16.7 89 1014.6 0.8080 0.8000
09:39 18.5 16.8 90 1014.4 0.8080 0.8000
09:49 18.5 16.8 90 1014.6 0.8080 0.8000
09:59 18.5 16.8 90 1014.6 0.5050 0.8000
10:09 18.6 17.1 91 1014.8 0.1010 0.8000
10:19 18.6 17.1 91 1014.7 0.1010 0.8000
10:21 18.7 17.2 91 1014.8 0.0000 0.8000
10:33 18.7 17.2 91 1014.8 0.0000 0.8000
10:48 18.9 17.4 91 1015 0.0000 0.8000
11:19 19.2 17.7 91 1014.9 0.0000 0.8000
11:25 19.2 17.7 91 1015 0.0000 0.8000
11:38 19.3 17.8 91 1015.1 0.0000 0.8000
11:39 19.3 17.8 91 1015.1 0.0000 0.8000
11:56 19.5 18 91 1015.3 0.0000 0.8000
12:09 19.6 18.1 91 1015.2 0.0000 0.8000
12:19 19.7 18.2 91 1015 0.0000 0.8000
12:29 19.8 18.1 90 1015 0.0000 0.8000
12:39 19.9 18.2 90 1015.2 0.0000 0.8000
12:51 20.1 18.4 90 1015.2 0.0000 0.8000
13:01 20.3 18.6 90 1015.2 0.0000 0.8000
13:06 20.4 18.7 90 1015 0.0000 0.8000
13:20 20.8 18.9 89 1015.1 0.0000 0.8000
13:31 21.1 19 88 1015 0.0000 0.8000
13:41 21.3 18.9 86 1015.1 0.0000 0.8000
13:52 21.4 19 86 1015 0.0000 0.8000
14:02 21.6 19 85 1014.9 0.0000 0.8000
14:12 21.8 19 84 1014.9 0.0000 0.8000
14:21 21.9 19.1 84 1014.9 0.0000 0.8000
14:32 21.9 18.7 82 1014.9 0.0000 0.8000
14:42 21.9 18.5 81 1015 0.0000 0.8000
14:52 21.8 18.6 82 1015 0.0000 0.8000
15:02 21.8 18.6 82 1015 0.0000 0.8000
15:11 21.7 18.5 82 1014.9 0.0000 0.8000
15:20 21.7 18.5 82 1015 0.0000 0.8000
15:31 21.6 18.4 82 1014.8 0.0000 0.8000
15:41 21.6 18.4 82 1015 0.0000 0.8000
15:45 21.6 18.4 82 1015 0.0000 0.8000
16:06 21.5 18.1 81 1014.7 0.0000 0.8000
17:20 22.1 18.3 79 1014.7 0.0000 0.8000
17:26 22.1 18.3 79 1014.8 0.0000 0.8000
17:37 22.2 18.4 79 1014.6 0.0000 0.8000
18:16 22 18.4 80 1014.7 0.0000 0.8000
18:21 22 18.4 80 1014.6 0.0000 0.8000
18:36 22 18.4 80 1014.3 0.0000 0.8000
18:46 21.9 18.3 80 1014.6 0.0000 0.8000
18:56 21.9 18.3 80 1014.6 0.0000 0.8000
19:01 21.9 18.3 80 1014.5 0.0000 0.8000
19:16 21.8 17.8 78 1014.6 0.0000 0.8000
19:26 21.8 17.8 78 1014.4 0.0000 0.8000
19:28 21.8 17.8 78 1014.6 0.0000 0.8000
19:47 21.6 17.6 78 1014.4 0.0000 0.8000
19:57 21.5 17.3 77 1014.6 0.0000 0.8000
20:03 21.4 17.2 77 1014.6 0.0000 0.8000

DAY STATISTIC

2018-08-20
TEMPERATURE
AVERAGE
20.3
HIGH
22.2
17:37
LOW
18.5
09:28
PRESSURE
AVERAGE
1014.2
HIGH
1015.3
11:56
LOW
1013.0
05:13
DEWPOINT
AVERAGE
17.1
HIGH
19.1
14:21
LOW
15.9
05:54
HUMIDITY
AVERAGE
82
HIGH
91
10:09
LOW
74
00:00
PRECIPITATION
RAIN HOUR
0.8
RAIN DAY
0.8
TEMPERATURE (°C)
LOW
18.5
HIGH
22.2
AVERAGE
20.3
PRESSURE (hpa)
LOW
1013.0
HIGH
1015.3
AVERAGE
1014.2
DEVICE